Time;durP1;ratioP1;P1;durP2;ratioP2;P2;SDS_P1;SDS_P2;PMS_P1;PMS_P2;Temp;Humidity;BMP_temperature;BMP_pressure;BME280_temperature;BME280_humidity;BME280_pressure;Samples;Min_cycle;Max_cycle;Signal;HPM_P1;HPM_P2
2021/11/15 00:02:22;;;;;;;115.60;40.90;;;;;;;5.73;100.00;102904.84;5026508;28;20053;-77
2021/11/15 00:04:48;;;;;;;118.78;41.88;;;;;;;5.63;100.00;102902.63;5001081;28;20041;-73
2021/11/15 00:07:14;;;;;;;119.50;41.72;;;;;;;5.62;100.00;102897.47;5022570;28;20041;-76
2021/11/15 00:09:40;;;;;;;120.53;42.35;;;;;;;5.58;100.00;102894.13;5005207;28;20106;-78
2021/11/15 00:12:06;;;;;;;121.28;40.58;;;;;;;5.59;100.00;102897.56;5022773;28;20537;-76
2021/11/15 00:14:32;;;;;;;120.47;41.25;;;;;;;5.60;100.00;102896.69;5002576;28;20120;-76
2021/11/15 00:16:58;;;;;;;121.57;39.67;;;;;;;5.63;100.00;102892.19;5021476;28;20635;-77
2021/11/15 00:19:24;;;;;;;124.72;40.40;;;;;;;5.68;100.00;102896.38;5003770;28;20050;-77
2021/11/15 00:21:50;;;;;;;118.25;41.03;;;;;;;5.63;100.00;102889.59;5010247;28;20029;-75
2021/11/15 00:24:16;;;;;;;128.35;43.95;;;;;;;5.62;100.00;102887.06;5026387;28;20105;-77
2021/11/15 00:26:42;;;;;;;120.05;40.80;;;;;;;5.59;100.00;102885.41;5010900;28;20372;-75
2021/11/15 00:29:07;;;;;;;119.20;40.22;;;;;;;5.65;100.00;102879.97;5010269;28;20033;-76
2021/11/15 00:31:33;;;;;;;123.07;40.70;;;;;;;5.62;100.00;102874.03;5022768;28;20041;-75
2021/11/15 00:33:58;;;;;;;123.00;43.38;;;;;;;5.62;100.00;102868.81;5023140;28;20045;-77
2021/11/15 00:36:24;;;;;;;129.18;43.38;;;;;;;5.63;100.00;102875.72;5014467;28;20613;-76
2021/11/15 00:38:49;;;;;;;127.00;42.33;;;;;;;5.58;100.00;102873.31;5002922;28;20542;-75
2021/11/15 00:41:16;;;;;;;119.43;41.55;;;;;;;5.56;100.00;102877.72;5024582;28;20056;-76
2021/11/15 00:43:42;;;;;;;128.23;42.55;;;;;;;5.59;100.00;102872.38;5019908;28;20487;-76
2021/11/15 00:46:08;;;;;;;125.72;42.40;;;;;;;5.59;100.00;102869.78;5024978;28;20033;-76
2021/11/15 00:48:34;;;;;;;130.00;43.63;;;;;;;5.57;100.00;102871.59;5003382;28;20180;-75
2021/11/15 00:51:00;;;;;;;130.43;43.67;;;;;;;5.59;100.00;102876.75;4998530;28;20043;-77
2021/11/15 00:53:27;;;;;;;125.97;42.30;;;;;;;5.61;100.00;102869.72;5010388;28;20041;-76
2021/11/15 00:55:53;;;;;;;130.15;42.03;;;;;;;5.63;100.00;102871.38;5009852;28;20037;-76
2021/11/15 00:58:18;;;;;;;120.32;41.15;;;;;;;5.59;100.00;102868.94;4986111;28;20071;-75
2021/11/15 01:00:44;;;;;;;118.55;41.75;;;;;;;5.58;100.00;102869.88;4995855;28;20116;-77
2021/11/15 01:03:11;;;;;;;116.10;41.55;;;;;;;5.58;100.00;102869.88;5019674;28;20827;-75
2021/11/15 01:05:39;;;;;;;126.90;43.25;;;;;;;5.66;100.00;102871.22;5010418;28;20129;-75
2021/11/15 01:08:06;;;;;;;130.15;43.53;;;;;;;5.58;100.00;102875.91;4991727;28;20100;-75
2021/11/15 01:10:33;;;;;;;127.90;44.10;;;;;;;5.57;100.00;102874.19;5018184;28;20049;-76
2021/11/15 01:13:00;;;;;;;129.45;43.55;;;;;;;5.66;100.00;102873.84;4974054;28;20033;-74
2021/11/15 01:15:28;;;;;;;133.05;45.67;;;;;;;5.71;100.00;102867.59;5011544;28;20076;-74
2021/11/15 01:17:55;;;;;;;126.00;42.40;;;;;;;5.71;100.00;102860.63;5021959;28;20115;-76
2021/11/15 01:20:25;;;;;;;122.97;41.90;;;;;;;5.62;100.00;102861.00;5005123;28;20128;-75
2021/11/15 01:22:50;;;;;;;130.35;41.40;;;;;;;5.62;100.00;102858.41;5009399;28;20029;-74
2021/11/15 01:25:16;;;;;;;129.10;44.30;;;;;;;5.58;100.00;102864.66;5010961;28;20095;-76
2021/11/15 01:27:42;;;;;;;123.68;43.03;;;;;;;5.57;100.00;102852.53;5018887;28;20038;-77
2021/11/15 01:30:11;;;;;;;131.63;44.53;;;;;;;5.59;100.00;102851.56;5004903;28;20108;-77
2021/11/15 01:32:39;;;;;;;121.30;42.15;;;;;;;5.57;100.00;102862.94;5000387;28;20402;-75
2021/11/15 01:35:06;;;;;;;125.45;43.03;;;;;;;5.55;100.00;102854.34;5023330;28;20119;-74
2021/11/15 01:37:33;;;;;;;122.85;42.25;;;;;;;5.58;100.00;102856.84;5006143;28;20041;-76
2021/11/15 01:39:59;;;;;;;123.20;42.72;;;;;;;5.55;100.00;102857.78;5003872;28;20041;-75
2021/11/15 01:42:25;;;;;;;125.95;43.17;;;;;;;5.59;100.00;102863.72;4999939;28;20033;-75
2021/11/15 01:44:51;;;;;;;119.85;42.60;;;;;;;5.57;100.00;102862.94;5008763;28;20140;-75
2021/11/15 01:47:17;;;;;;;121.65;43.85;;;;;;;5.57;100.00;102870.75;5007459;28;20148;-75
2021/11/15 01:49:43;;;;;;;122.78;44.35;;;;;;;5.61;100.00;102869.72;5013379;28;20053;-75
2021/11/15 01:52:11;;;;;;;122.47;43.70;;;;;;;5.65;100.00;102868.69;5022169;28;20772;-75
2021/11/15 01:54:37;;;;;;;123.82;43.17;;;;;;;5.66;100.00;102865.19;5019567;28;20043;-74
2021/11/15 01:57:03;;;;;;;125.63;44.33;;;;;;;5.61;100.00;102867.13;5009919;28;20041;-76
2021/11/15 01:59:29;;;;;;;130.27;42.42;;;;;;;5.61;100.00;102874.94;5008942;28;20038;-75
2021/11/15 02:01:55;;;;;;;123.20;41.53;;;;;;;5.63;100.00;102870.50;5000974;28;20069;-75
2021/11/15 02:04:20;;;;;;;124.50;42.60;;;;;;;5.59;100.00;102869.78;5011423;28;20538;-75
2021/11/15 02:06:46;;;;;;;114.13;40.15;;;;;;;5.60;100.00;102878.47;5025127;28;20116;-74
2021/11/15 02:09:12;;;;;;;127.60;44.92;;;;;;;5.62;100.00;102871.44;4992365;28;20135;-75
2021/11/15 02:11:38;;;;;;;115.50;41.58;;;;;;;5.61;100.00;102874.94;5007592;28;20044;-74
2021/11/15 02:14:04;;;;;;;120.80;42.65;;;;;;;5.63;100.00;102879.19;5018654;28;20033;-74
2021/11/15 02:16:30;;;;;;;131.85;44.67;;;;;;;5.60;100.00;102873.25;5017907;28;20038;-77
2021/11/15 02:18:56;;;;;;;124.40;42.55;;;;;;;5.64;100.00;102880.03;4992555;28;20044;-74
2021/11/15 02:21:23;;;;;;;121.72;43.22;;;;;;;5.61;100.00;102877.53;5008613;28;20037;-75
2021/11/15 02:23:50;;;;;;;121.10;44.15;;;;;;;5.66;100.00;102888.63;4997753;28;20108;-75
2021/11/15 02:26:19;;;;;;;122.20;43.95;;;;;;;5.63;100.00;102878.31;5016198;28;20033;-75
2021/11/15 02:28:46;;;;;;;124.15;43.55;;;;;;;5.66;100.00;102878.19;5022374;28;20046;-74
2021/11/15 02:31:16;;;;;;;130.70;43.92;;;;;;;5.69;100.00;102879.81;5008449;28;20104;-75
2021/11/15 02:33:43;;;;;;;128.88;43.75;;;;;;;5.68;100.00;102878.16;5022212;28;20108;-76
2021/11/15 02:36:08;;;;;;;120.88;43.65;;;;;;;5.65;100.00;102874.75;4991597;28;20482;-75
2021/11/15 02:38:35;;;;;;;128.30;44.80;;;;;;;5.61;100.00;102867.13;5006834;28;20044;-75
2021/11/15 02:41:02;;;;;;;118.20;43.42;;;;;;;5.63;100.00;102880.91;5022040;28;20372;-74
2021/11/15 02:43:28;;;;;;;128.70;42.22;;;;;;;5.62;100.00;102871.44;4989312;28;20126;-74
2021/11/15 02:45:54;;;;;;;120.88;42.35;;;;;;;5.62;100.00;102871.44;4992738;28;20121;-75
2021/11/15 02:48:22;;;;;;;126.95;44.60;;;;;;;5.64;100.00;102875.66;4994133;28;20049;-75
2021/11/15 02:50:48;;;;;;;118.93;41.30;;;;;;;5.59;100.00;102868.94;5020972;28;20072;-75
2021/11/15 02:53:14;;;;;;;127.22;43.45;;;;;;;5.61;100.00;102867.97;5019107;28;20501;-75
2021/11/15 02:55:43;;;;;;;114.65;41.80;;;;;;;5.60;100.00;102865.44;5000463;28;20037;-75
2021/11/15 02:58:09;;;;;;;126.95;42.97;;;;;;;5.59;100.00;102859.38;5021343;28;20064;-74
2021/11/15 03:00:44;;;;;;;130.68;43.50;;;;;;;5.56;100.00;102864.72;4989532;28;20527;-76
2021/11/15 03:03:11;;;;;;;130.20;44.05;;;;;;;5.56;100.00;102861.28;4996101;28;20415;-75
2021/11/15 03:05:41;;;;;;;120.97;42.25;;;;;;;5.62;100.00;102867.06;5025676;28;20410;-75
2021/11/15 03:08:08;;;;;;;119.45;42.72;;;;;;;5.64;100.00;102864.41;4991964;28;20041;-74
2021/11/15 03:10:36;;;;;;;123.30;42.70;;;;;;;5.63;100.00;102873.97;5008522;28;20029;-76
2021/11/15 03:13:03;;;;;;;126.80;41.15;;;;;;;5.59;100.00;102861.13;5008827;28;20037;-76
2021/11/15 03:15:36;;;;;;;110.90;40.72;;;;;;;5.62;100.00;102869.66;5004621;28;20037;-75
2021/11/15 03:18:23;;;;;;;110.57;38.85;;;;;;;5.57;100.00;102862.94;5017266;28;20025;-77
2021/11/15 03:20:53;;;;;;;111.28;40.95;;;;;;;5.50;100.00;102864.97;5024179;28;20046;-75
2021/11/15 03:23:22;;;;;;;115.43;41.60;;;;;;;5.50;100.00;102871.91;5007458;28;20072;-74
2021/11/15 03:25:48;;;;;;;111.70;39.78;;;;;;;5.43;100.00;102871.31;5003617;28;20036;-75
2021/11/15 03:28:17;;;;;;;102.68;37.55;;;;;;;5.45;100.00;102865.13;5011620;28;20045;-75
2021/11/15 03:30:43;;;;;;;105.72;39.92;;;;;;;5.40;100.00;102859.25;5020313;28;20041;-75
2021/11/15 03:33:11;;;;;;;107.20;39.15;;;;;;;5.40;100.00;102864.47;4979299;28;20112;-74
2021/11/15 03:35:38;;;;;;;106.13;38.97;;;;;;;5.33;100.00;102856.97;5013193;28;20415;-76
2021/11/15 03:38:05;;;;;;;108.18;40.58;;;;;;;5.35;100.00;102856.00;5022849;28;20072;-75
2021/11/15 03:40:31;;;;;;;100.65;39.67;;;;;;;5.39;100.00;102867.16;5018944;28;20065;-75
2021/11/15 03:43:00;;;;;;;99.03;38.65;;;;;;;5.34;100.00;102861.28;5021735;28;20069;-75
2021/11/15 03:45:27;;;;;;;113.35;40.03;;;;;;;5.32;100.00;102853.53;5017321;28;20278;-75
2021/11/15 03:47:54;;;;;;;115.13;39.85;;;;;;;5.33;100.00;102851.75;5011341;28;20041;-75
2021/11/15 03:50:20;;;;;;;108.28;40.55;;;;;;;5.29;100.00;102852.78;5020565;28;20040;-75
2021/11/15 03:52:46;;;;;;;99.82;39.13;;;;;;;5.31;100.00;102849.22;5024444;28;20040;-76
2021/11/15 03:55:15;;;;;;;105.50;41.75;;;;;;;5.32;100.00;102853.53;5009392;28;20719;-75
2021/11/15 03:57:41;;;;;;;107.50;41.15;;;;;;;5.29;100.00;102855.38;5014743;28;20034;-76
2021/11/15 04:00:11;;;;;;;101.00;39.15;;;;;;;5.31;100.00;102853.56;5018072;28;20688;-76
2021/11/15 04:02:42;;;;;;;111.40;40.58;;;;;;;5.28;100.00;102854.56;5032055;28;20040;-75
2021/11/15 04:05:09;;;;;;;98.10;37.83;;;;;;;5.34;100.00;102856.91;5015978;28;20029;-74
2021/11/15 04:07:49;;;;;;;105.38;39.75;;;;;;;5.29;100.00;102855.38;4988999;28;20050;-74
2021/11/15 04:10:33;;;;;;;111.75;42.80;;;;;;;5.29;100.00;102853.63;5012498;28;20030;-75
2021/11/15 04:13:03;;;;;;;106.10;40.95;;;;;;;5.25;100.00;102858.13;5024063;28;20060;-76
2021/11/15 04:15:28;;;;;;;109.68;40.42;;;;;;;5.24;100.00;102848.63;5002083;28;20036;-75
2021/11/15 04:17:55;;;;;;;109.38;41.10;;;;;;;5.29;100.00;102860.59;5008694;28;20073;-73
2021/11/15 04:20:22;;;;;;;112.07;41.38;;;;;;;5.23;100.00;102853.88;4986217;28;20025;-75
2021/11/15 04:22:47;;;;;;;109.53;40.80;;;;;;;5.14;100.00;102849.91;4997648;28;20065;-75
2021/11/15 04:25:13;;;;;;;117.53;42.40;;;;;;;5.18;100.00;102846.25;5020130;28;20745;-76
2021/11/15 04:27:39;;;;;;;110.15;41.70;;;;;;;5.14;100.00;102854.22;5025604;28;20085;-75
2021/11/15 04:30:07;;;;;;;108.38;41.15;;;;;;;5.23;100.00;102857.31;5016172;28;20029;-75
2021/11/15 04:32:33;;;;;;;112.07;40.38;;;;;;;5.12;100.00;102843.03;5017300;28;20049;-74
2021/11/15 04:34:58;;;;;;;108.10;41.25;;;;;;;5.08;100.00;102847.50;5008670;28;20037;-76
2021/11/15 04:37:24;;;;;;;106.47;40.78;;;;;;;5.05;100.00;102850.25;5006764;28;20029;-75
2021/11/15 04:39:49;;;;;;;102.57;40.65;;;;;;;5.06;100.00;102860.56;5004376;28;20506;-75
2021/11/15 04:42:15;;;;;;;107.32;40.20;;;;;;;5.05;100.00;102852.84;4988251;28;20087;-75
2021/11/15 04:44:42;;;;;;;115.13;40.92;;;;;;;5.07;100.00;102854.47;5010386;28;20049;-75
2021/11/15 04:47:08;;;;;;;115.15;41.88;;;;;;;5.06;100.00;102867.53;5008643;28;20029;-75
2021/11/15 04:49:33;;;;;;;104.05;40.28;;;;;;;5.12;100.00;102866.44;5007015;28;20045;-73
2021/11/15 04:51:59;;;;;;;106.78;40.17;;;;;;;5.05;100.00;102858.06;4989403;28;20453;-76
2021/11/15 04:54:25;;;;;;;112.22;41.03;;;;;;;5.04;100.00;102853.75;4992066;28;20041;-75
2021/11/15 04:56:51;;;;;;;109.63;39.60;;;;;;;5.01;100.00;102853.84;5009056;28;20792;-74
2021/11/15 04:59:17;;;;;;;108.47;40.67;;;;;;;4.98;100.00;102848.78;5007729;28;20521;-75
2021/11/15 05:01:42;;;;;;;97.70;38.25;;;;;;;4.98;100.00;102857.44;5023864;28;20410;-75
2021/11/15 05:04:08;;;;;;;103.13;40.00;;;;;;;5.00;100.00;102850.41;5008866;28;20112;-76
2021/11/15 05:06:34;;;;;;;102.88;39.10;;;;;;;4.98;100.00;102853.97;5025017;28;20033;-76
2021/11/15 05:09:00;;;;;;;106.63;38.20;;;;;;;5.02;100.00;102856.41;5008686;28;20060;-75
2021/11/15 05:11:25;;;;;;;107.40;39.72;;;;;;;4.98;100.00;102848.78;4993218;28;20038;-76
2021/11/15 05:13:51;;;;;;;103.95;40.65;;;;;;;4.92;100.00;102849.88;4992415;28;20048;-76
2021/11/15 05:16:17;;;;;;;101.10;39.45;;;;;;;4.97;100.00;102847.06;5005204;28;20539;-74
2021/11/15 05:18:43;;;;;;;102.32;41.03;;;;;;;4.96;100.00;102851.44;5040806;28;20041;-76
2021/11/15 05:21:09;;;;;;;98.03;39.65;;;;;;;4.98;100.00;102848.78;5008971;28;20102;-75
2021/11/15 05:23:37;;;;;;;102.25;40.95;;;;;;;4.94;100.00;102845.44;4988412;28;20052;-75
2021/11/15 05:26:03;;;;;;;104.10;39.80;;;;;;;4.91;100.00;102848.16;4991945;28;20068;-76
2021/11/15 05:28:28;;;;;;;100.82;39.25;;;;;;;4.87;100.00;102836.19;5019553;28;20030;-75
2021/11/15 05:30:54;;;;;;;98.93;38.97;;;;;;;4.86;100.00;102837.94;5025125;28;20060;-75
2021/11/15 05:33:19;;;;;;;96.53;39.28;;;;;;;4.89;100.00;102839.56;5012995;28;20372;-75
2021/11/15 05:35:45;;;;;;;98.90;39.17;;;;;;;4.93;100.00;102843.75;5009456;28;20411;-75
2021/11/15 05:38:11;;;;;;;96.63;38.17;;;;;;;4.93;100.00;102837.69;4993403;28;22182;-74
2021/11/15 05:40:36;;;;;;;95.32;38.25;;;;;;;4.94;100.00;102855.00;5009332;28;20124;-74
2021/11/15 05:43:02;;;;;;;99.68;38.85;;;;;;;4.91;100.00;102855.97;4993884;28;20039;-74
2021/11/15 05:45:28;;;;;;;97.32;37.85;;;;;;;4.92;100.00;102852.47;5021791;28;20415;-76
2021/11/15 05:47:54;;;;;;;94.43;37.60;;;;;;;4.98;100.00;102848.78;5026160;28;20406;-74
2021/11/15 05:50:21;;;;;;;94.93;39.90;;;;;;;4.95;100.00;102854.94;4989920;28;20099;-75
2021/11/15 05:52:47;;;;;;;92.32;36.92;;;;;;;4.93;100.00;102848.94;5012332;28;20116;-74
2021/11/15 05:55:17;;;;;;;87.95;36.40;;;;;;;4.97;100.00;102852.28;4991585;28;20701;-76
2021/11/15 05:57:43;;;;;;;87.18;36.58;;;;;;;4.95;100.00;102854.94;5025298;28;20391;-76
2021/11/15 06:00:13;;;;;;;90.43;36.75;;;;;;;4.96;100.00;102856.63;5017876;28;20033;-76
2021/11/15 06:02:39;;;;;;;87.10;36.25;;;;;;;5.04;100.00;102857.19;4987060;28;20033;-76
2021/11/15 06:05:06;;;;;;;82.90;36.38;;;;;;;5.01;100.00;102846.91;5005679;28;20087;-76
2021/11/15 06:07:32;;;;;;;83.78;35.85;;;;;;;5.06;100.00;102855.38;5021573;28;20487;-76
2021/11/15 06:09:58;;;;;;;85.75;35.10;;;;;;;5.01;99.81;102846.91;5006230;28;20037;-76
2021/11/15 06:12:23;;;;;;;86.68;36.85;;;;;;;5.01;100.00;102849.50;4994237;28;20026;-76
2021/11/15 06:14:49;;;;;;;87.15;37.33;;;;;;;5.03;99.78;102852.06;5024299;28;20047;-75
2021/11/15 06:17:15;;;;;;;82.72;36.58;;;;;;;5.04;99.61;102854.59;5009577;28;20159;-77
2021/11/15 06:19:41;;;;;;;83.75;36.08;;;;;;;5.02;99.62;102850.34;4985929;28;20108;-76
2021/11/15 06:22:07;;;;;;;84.18;36.38;;;;;;;5.04;99.53;102853.75;5002479;28;20494;-75
2021/11/15 06:24:33;;;;;;;82.72;37.08;;;;;;;4.99;100.00;102853.94;5013459;28;20038;-76
2021/11/15 06:27:00;;;;;;;77.35;34.63;;;;;;;4.99;100.00;102859.13;4994197;28;20033;-76
2021/11/15 06:29:26;;;;;;;82.95;36.22;;;;;;;4.99;100.00;102853.94;5024508;28;20055;-75
2021/11/15 06:31:53;;;;;;;83.15;36.47;;;;;;;5.01;100.00;102859.91;5021525;28;20033;-75
2021/11/15 06:34:18;;;;;;;84.45;35.90;;;;;;;5.02;100.00;102860.75;5006143;28;20384;-76
2021/11/15 06:36:44;;;;;;;80.60;34.25;;;;;;;4.97;100.00;102862.69;5020592;28;20038;-76
2021/11/15 06:39:09;;;;;;;87.45;36.28;;;;;;;4.98;100.00;102862.63;5023616;28;20041;-76
2021/11/15 06:41:35;;;;;;;85.18;37.20;;;;;;;5.00;100.00;102863.41;5006072;28;20124;-75
2021/11/15 06:44:01;;;;;;;84.68;37.38;;;;;;;5.06;100.00;102867.53;5009697;28;20036;-76
2021/11/15 06:46:28;;;;;;;82.68;36.42;;;;;;;5.08;100.00;102863.13;5018992;28;20043;-75
2021/11/15 06:48:54;;;;;;;78.15;33.58;;;;;;;5.05;100.00;102868.47;5021300;28;20036;-76
2021/11/15 06:51:19;;;;;;;85.53;35.63;;;;;;;5.04;100.00;102871.94;5011197;28;20033;-76
2021/11/15 06:53:45;;;;;;;77.75;34.70;;;;;;;5.02;100.00;102860.75;5019835;28;20034;-76
2021/11/15 06:56:11;;;;;;;84.47;35.92;;;;;;;4.98;100.00;102857.44;5007625;28;20513;-75
2021/11/15 06:58:37;;;;;;;83.97;35.05;;;;;;;5.02;100.00;102873.75;4992996;28;20219;-76
2021/11/15 07:01:03;;;;;;;81.22;34.47;;;;;;;5.00;100.00;102867.78;5000979;28;20037;-76
2021/11/15 07:03:29;;;;;;;75.43;33.75;;;;;;;4.97;100.00;102873.09;5003611;28;20030;-77
2021/11/15 07:05:55;;;;;;;79.82;33.83;;;;;;;5.02;100.00;102879.81;5011245;28;20034;-75
2021/11/15 07:08:20;;;;;;;75.75;33.70;;;;;;;5.03;100.00;102878.91;4983765;28;20034;-75
2021/11/15 07:10:46;;;;;;;78.10;34.85;;;;;;;5.07;100.00;102871.84;5007400;28;20037;-75
2021/11/15 07:13:15;;;;;;;80.03;35.42;;;;;;;5.05;100.00;102871.91;5022969;28;20051;-76
2021/11/15 07:15:42;;;;;;;85.60;35.33;;;;;;;5.08;100.00;102868.31;5012450;28;20135;-76
2021/11/15 07:18:08;;;;;;;82.32;36.78;;;;;;;5.09;100.00;102869.19;5022758;28;20048;-76
2021/11/15 07:20:33;;;;;;;77.70;34.15;;;;;;;5.14;100.00;102867.25;4999451;28;20060;-76
2021/11/15 07:22:59;;;;;;;74.35;34.53;;;;;;;5.13;100.00;102868.16;5017071;28;20018;-76
2021/11/15 07:25:25;;;;;;;73.35;33.85;;;;;;;5.16;100.00;102868.91;4999719;28;20116;-76
2021/11/15 07:27:54;;;;;;;76.72;33.70;;;;;;;5.25;99.10;102873.75;5025294;28;20031;-75
2021/11/15 07:30:20;;;;;;;75.53;34.33;;;;;;;5.25;99.08;102875.47;5009745;28;20029;-76
2021/11/15 07:32:47;;;;;;;67.15;32.95;;;;;;;5.33;98.58;102867.38;5010429;28;20056;-75
2021/11/15 07:35:13;;;;;;;72.30;32.53;;;;;;;5.30;98.57;102868.34;4990400;28;20122;-75
2021/11/15 07:37:38;;;;;;;70.97;32.85;;;;;;;5.40;96.22;102867.06;5007674;28;20083;-74
2021/11/15 07:40:07;;;;;;;73.82;32.38;;;;;;;5.42;97.35;102867.00;5011593;28;20479;-74
2021/11/15 07:42:32;;;;;;;68.72;31.85;;;;;;;5.45;97.23;102862.53;5017489;28;20056;-75
2021/11/15 07:44:58;;;;;;;70.13;31.95;;;;;;;5.47;95.77;102867.69;5010087;28;20037;-75
2021/11/15 07:47:24;;;;;;;70.47;32.25;;;;;;;5.49;96.41;102870.22;5025202;28;20038;-74
2021/11/15 07:49:50;;;;;;;72.45;32.10;;;;;;;5.49;95.55;102878.03;5023432;28;20047;-75
2021/11/15 07:52:16;;;;;;;66.88;31.55;;;;;;;5.56;94.36;102869.91;5009460;28;20033;-74
2021/11/15 07:54:44;;;;;;;68.53;33.30;;;;;;;5.51;94.79;102868.41;5001756;28;20419;-76
2021/11/15 07:57:10;;;;;;;69.10;32.08;;;;;;;5.59;93.58;102864.56;4987191;28;20114;-74
2021/11/15 07:59:37;;;;;;;65.30;31.35;;;;;;;5.57;94.34;102862.94;5009165;28;20073;-75
2021/11/15 08:02:03;;;;;;;68.63;32.13;;;;;;;5.60;93.92;102868.88;5011548;28;20033;-76
2021/11/15 08:04:29;;;;;;;68.15;33.05;;;;;;;5.55;92.63;102868.22;5004168;28;20030;-74
2021/11/15 08:06:55;;;;;;;66.55;32.85;;;;;;;5.59;92.75;102855.91;5024817;28;20036;-75
2021/11/15 08:09:20;;;;;;;66.20;31.63;;;;;;;5.58;91.93;102862.06;5007375;28;20065;-74
2021/11/15 08:11:50;;;;;;;70.82;32.10;;;;;;;5.56;92.52;102861.28;4991094;28;20041;-75
2021/11/15 08:14:16;;;;;;;66.05;33.55;;;;;;;5.54;92.91;102860.47;5003211;28;20102;-75
2021/11/15 08:16:43;;;;;;;68.65;33.08;;;;;;;5.54;93.99;102863.94;5024121;28;20731;-76
2021/11/15 08:19:09;;;;;;;66.30;32.65;;;;;;;5.56;93.56;102863.88;5006635;28;20045;-75
2021/11/15 08:21:35;;;;;;;73.00;33.85;;;;;;;5.57;93.75;102866.38;5007425;28;20042;-75
2021/11/15 08:24:33;;;;;;;67.47;31.92;;;;;;;5.60;93.32;102874.09;5008179;28;20034;-74
2021/11/15 08:27:00;;;;;;;73.57;35.03;;;;;;;5.55;93.96;102876.03;4999132;28;20037;-74
2021/11/15 08:29:29;;;;;;;70.80;33.42;;;;;;;5.54;95.04;102881.28;5024180;28;20087;-76
2021/11/15 08:31:58;;;;;;;70.30;33.35;;;;;;;5.55;94.89;102883.81;5022785;28;20534;-76
2021/11/15 08:34:26;;;;;;;73.13;34.42;;;;;;;5.59;95.86;102877.59;5014961;28;20080;-75
2021/11/15 08:36:51;;;;;;;72.55;33.85;;;;;;;5.54;93.35;102879.56;5027052;28;20045;-75
2021/11/15 08:39:20;;;;;;;74.55;32.50;;;;;;;5.57;93.33;102883.78;5005847;28;20137;-75
2021/11/15 08:41:55;;;;;;;72.40;33.35;;;;;;;5.56;92.93;102877.72;5009806;28;20091;-74
2021/11/15 08:44:21;;;;;;;75.10;34.28;;;;;;;5.58;92.93;102886.31;5022710;28;20121;-75
2021/11/15 08:46:50;;;;;;;74.47;34.38;;;;;;;5.53;93.12;102887.41;4999313;28;20052;-74
2021/11/15 08:49:18;;;;;;;75.18;35.17;;;;;;;5.50;93.93;102890.13;5004312;28;20083;-76
2021/11/15 08:51:45;;;;;;;74.93;34.95;;;;;;;5.53;94.30;102893.47;5022206;28;20037;-75
2021/11/15 08:54:15;;;;;;;74.25;34.03;;;;;;;5.56;93.31;102893.34;4992297;28;20095;-75
2021/11/15 08:56:45;;;;;;;72.32;33.97;;;;;;;5.59;92.61;102901.00;5020187;28;20037;-74
2021/11/15 08:59:11;;;;;;;76.47;34.42;;;;;;;5.64;93.74;102893.88;5024047;28;20091;-75
2021/11/15 09:01:38;;;;;;;77.40;35.13;;;;;;;5.62;92.77;102897.47;5019124;28;20083;-75
2021/11/15 09:04:04;;;;;;;70.32;33.55;;;;;;;5.57;93.21;102892.44;5008035;28;20033;-74
2021/11/15 09:06:30;;;;;;;69.85;32.90;;;;;;;5.60;93.73;102886.28;5016901;28;20435;-76
2021/11/15 09:08:57;;;;;;;71.97;34.22;;;;;;;5.61;93.83;102887.94;4989786;28;20037;-75
2021/11/15 09:11:22;;;;;;;77.90;34.92;;;;;;;5.62;93.57;102877.47;4997190;28;20048;-76
2021/11/15 09:13:48;;;;;;;71.95;32.80;;;;;;;5.61;94.22;102881.00;4997716;28;20042;-76
2021/11/15 09:16:15;;;;;;;71.13;33.20;;;;;;;5.66;93.71;102873.84;5010202;28;20446;-75
2021/11/15 09:18:42;;;;;;;70.82;33.25;;;;;;;5.69;93.50;102872.88;5024734;28;20041;-76
2021/11/15 09:21:10;;;;;;;69.07;33.58;;;;;;;5.72;93.38;102870.13;5021968;28;20457;-75
2021/11/15 09:23:39;;;;;;;72.75;33.83;;;;;;;5.79;92.93;102878.56;5024649;28;20087;-75
2021/11/15 09:26:05;;;;;;;68.95;33.60;;;;;;;5.73;93.39;102874.44;5026047;28;20056;-76
2021/11/15 09:28:31;;;;;;;72.53;33.55;;;;;;;5.76;93.39;102878.66;5010172;28;20179;-76
2021/11/15 09:30:56;;;;;;;74.53;35.45;;;;;;;5.76;94.62;102870.84;5016271;28;20033;-75
2021/11/15 09:33:22;;;;;;;72.57;34.13;;;;;;;5.80;92.13;102877.63;5017707;28;20038;-74
2021/11/15 09:35:49;;;;;;;68.10;32.10;;;;;;;5.70;91.41;102877.16;5010064;28;20033;-75
2021/11/15 09:38:19;;;;;;;71.95;33.80;;;;;;;5.71;92.08;102871.06;5011637;28;20068;-75
2021/11/15 09:40:55;;;;;;;66.90;33.03;;;;;;;5.69;92.68;102878.09;5006953;28;20041;-75
2021/11/15 09:43:22;;;;;;;69.70;34.03;;;;;;;5.74;92.14;102880.50;5001684;28;20033;-76
2021/11/15 09:45:48;;;;;;;69.47;32.97;;;;;;;5.79;92.50;102884.59;5009216;28;20056;-76
2021/11/15 09:48:15;;;;;;;70.35;34.00;;;;;;;5.77;91.99;102886.41;5004100;28;20486;-75
2021/11/15 09:50:41;;;;;;;64.72;30.95;;;;;;;5.79;92.03;102887.19;5011322;28;20067;-75
2021/11/15 09:53:07;;;;;;;64.68;31.90;;;;;;;5.84;91.30;102892.25;5023127;28;20037;-75
2021/11/15 09:55:33;;;;;;;68.20;33.85;;;;;;;5.83;92.05;102888.78;5003833;28;20045;-76
2021/11/15 09:57:59;;;;;;;65.43;33.13;;;;;;;5.83;91.49;102882.72;5011349;28;20040;-76
2021/11/15 10:00:27;;;;;;;69.13;33.78;;;;;;;5.86;91.64;102895.63;5021722;28;20029;-76
2021/11/15 10:03:00;;;;;;;66.53;32.65;;;;;;;5.89;92.61;102890.28;5002861;28;20041;-75
2021/11/15 10:05:26;;;;;;;62.38;31.85;;;;;;;5.86;91.94;102885.22;5011456;28;20033;-74
2021/11/15 10:07:57;;;;;;;64.78;32.80;;;;;;;5.88;91.93;102886.00;5001525;28;20399;-75
2021/11/15 10:10:38;;;;;;;62.03;31.15;;;;;;;5.97;89.81;102885.66;4991284;28;20037;-76
2021/11/15 10:13:23;;;;;;;61.55;31.50;;;;;;;5.93;90.73;102885.78;5008634;28;20060;-75
2021/11/15 10:15:59;;;;;;;67.07;30.80;;;;;;;5.97;89.63;102877.84;4989288;28;20491;-76
2021/11/15 10:18:54;;;;;;;64.97;32.20;;;;;;;5.93;90.70;102878.81;5011543;28;20037;-75
2021/11/15 10:21:30;;;;;;;57.60;30.33;;;;;;;5.94;89.53;102874.47;5014445;28;20041;-75
2021/11/15 10:24:21;;;;;;;59.88;30.65;;;;;;;5.92;90.45;102873.69;5021854;28;20486;-75
2021/11/15 10:27:06;;;;;;;62.35;31.17;;;;;;;5.94;90.58;102864.06;5008406;28;20033;-75
2021/11/15 10:29:34;;;;;;;62.00;31.40;;;;;;;5.95;90.52;102870.94;5004546;28;20824;-75
2021/11/15 10:32:08;;;;;;;61.13;31.83;;;;;;;5.98;90.16;102869.09;5013286;28;20036;-75
2021/11/15 10:34:39;;;;;;;62.45;31.42;;;;;;;5.98;89.10;102866.47;5020969;28;20491;-75
2021/11/15 10:37:10;;;;;;;62.05;31.25;;;;;;;5.94;89.32;102871.88;4988884;28;20521;-75
2021/11/15 10:39:49;;;;;;;62.55;31.73;;;;;;;5.99;88.85;102867.31;4991887;28;20148;-75
2021/11/15 10:42:27;;;;;;;62.95;32.67;;;;;;;5.89;89.40;102861.63;5006922;28;20499;-75
2021/11/15 10:45:05;;;;;;;63.05;31.20;;;;;;;5.91;89.09;102856.34;5009442;28;20075;-75
2021/11/15 10:47:33;;;;;;;64.53;32.22;;;;;;;5.88;88.94;102854.72;4990663;28;20052;-76
2021/11/15 10:50:11;;;;;;;57.00;30.25;;;;;;;5.86;88.41;102848.75;4983691;28;20033;-75
2021/11/15 10:52:40;;;;;;;59.63;30.70;;;;;;;5.86;88.03;102851.34;4996695;28;20373;-75
2021/11/15 10:55:08;;;;;;;61.20;30.73;;;;;;;5.89;88.93;102845.16;5016175;28;20558;-75
2021/11/15 10:57:44;;;;;;;59.28;30.50;;;;;;;5.91;89.16;102854.59;4995474;28;20048;-75
2021/11/15 11:00:15;;;;;;;57.45;29.08;;;;;;;5.94;89.36;102851.03;5010189;28;20502;-76
2021/11/15 11:02:55;;;;;;;62.50;30.50;;;;;;;5.99;88.21;102846.47;5013428;28;20037;-74
2021/11/15 11:05:30;;;;;;;60.20;29.40;;;;;;;5.91;89.12;102843.31;5008961;28;20164;-75
2021/11/15 11:08:06;;;;;;;61.15;30.92;;;;;;;5.91;89.89;102845.94;5008374;28;20558;-75
2021/11/15 11:10:40;;;;;;;62.20;30.33;;;;;;;5.97;88.80;102848.31;5005958;28;20119;-74
2021/11/15 11:13:06;;;;;;;56.80;29.58;;;;;;;5.96;88.02;102844.03;5010137;28;20111;-75